Time;durP1;ratioP1;P1;durP2;ratioP2;P2;SDS_P1;SDS_P2;PMS_P1;PMS_P2;Temp;Humidity;BMP_temperature;BMP_pressure;BME280_temperature;BME280_humidity;BME280_pressure;Samples;Min_cycle;Max_cycle;Signal;HPM_P1;HPM_P2
2023/09/27 00:00:19;;;;;;;19.13;12.63;;;21.30;74.00;;;;;;5015239;28;20535;-55
2023/09/27 00:02:44;;;;;;;17.92;11.85;;;21.30;74.00;;;;;;5015293;28;20157;-57
2023/09/27 00:05:11;;;;;;;22.08;13.65;;;21.30;74.20;;;;;;5014438;28;20109;-51
2023/09/27 00:07:39;;;;;;;19.90;12.40;;;21.40;74.20;;;;;;5014632;28;20040;-56
2023/09/27 00:10:06;;;;;;;16.73;12.18;;;21.30;74.00;;;;;;5014544;28;20104;-52
2023/09/27 00:12:33;;;;;;;16.15;12.57;;;21.30;73.90;;;;;;5015520;28;20381;-55
2023/09/27 00:15:01;;;;;;;17.45;12.10;;;21.30;74.10;;;;;;5016184;28;20058;-53
2023/09/27 00:17:28;;;;;;;16.63;11.48;;;21.30;74.10;;;;;;5014407;28;20112;-57
2023/09/27 00:19:54;;;;;;;19.02;12.57;;;21.30;74.00;;;;;;5012627;28;20029;-58
2023/09/27 00:22:20;;;;;;;20.50;13.68;;;21.30;74.30;;;;;;5014256;28;20026;-58
2023/09/27 00:24:47;;;;;;;22.63;13.98;;;21.30;74.50;;;;;;5013553;28;20113;-52
2023/09/27 00:27:12;;;;;;;18.73;13.20;;;21.30;74.50;;;;;;5014390;28;20053;-56
2023/09/27 00:29:38;;;;;;;21.55;13.48;;;21.30;75.30;;;;;;5013775;28;20501;-57
2023/09/27 00:32:05;;;;;;;21.10;13.07;;;21.20;75.10;;;;;;5014724;28;20485;-53
2023/09/27 00:34:31;;;;;;;22.38;14.55;;;21.20;75.10;;;;;;5014405;28;20032;-55
2023/09/27 00:36:57;;;;;;;24.30;14.90;;;21.20;75.30;;;;;;5012897;28;20045;-57
2023/09/27 00:39:24;;;;;;;21.85;14.73;;;21.10;75.80;;;;;;5013892;28;20101;-52
2023/09/27 00:41:50;;;;;;;22.60;13.60;;;21.10;75.70;;;;;;5015565;28;20032;-52
2023/09/27 00:44:15;;;;;;;17.90;13.57;;;21.10;75.50;;;;;;5010656;28;20033;-53
2023/09/27 00:46:43;;;;;;;24.30;14.27;;;21.10;75.80;;;;;;5012517;28;20455;-56
2023/09/27 00:49:10;;;;;;;22.58;14.20;;;21.00;75.60;;;;;;5012782;28;20034;-52
2023/09/27 00:51:37;;;;;;;21.83;14.07;;;21.00;75.80;;;;;;5013334;28;20030;-54
2023/09/27 00:54:04;;;;;;;19.88;14.30;;;21.00;75.90;;;;;;5013459;28;20108;-54
2023/09/27 00:56:30;;;;;;;22.65;14.52;;;21.00;75.80;;;;;;5012431;28;20026;-53
2023/09/27 00:58:57;;;;;;;21.73;14.45;;;21.00;76.40;;;;;;5012428;28;20026;-55
2023/09/27 01:01:26;;;;;;;22.55;14.10;;;21.00;75.90;;;;;;5014277;28;20058;-54
2023/09/27 01:03:57;;;;;;;20.60;14.80;;;21.00;76.00;;;;;;5020430;28;20029;-55
2023/09/27 01:06:23;;;;;;;24.88;14.80;;;20.90;75.90;;;;;;5028252;28;20018;-57
2023/09/27 01:08:49;;;;;;;21.67;15.15;;;20.90;75.90;;;;;;5012773;28;20100;-55
2023/09/27 01:11:16;;;;;;;20.10;14.25;;;20.90;76.00;;;;;;5014097;28;20109;-55
2023/09/27 01:13:43;;;;;;;19.02;14.32;;;21.00;76.10;;;;;;5013196;28;20113;-52
2023/09/27 01:16:09;;;;;;;21.38;14.80;;;20.90;76.00;;;;;;5012937;28;20026;-55
2023/09/27 01:18:35;;;;;;;19.63;14.60;;;20.90;76.00;;;;;;5012174;28;20041;-55
2023/09/27 01:21:01;;;;;;;22.73;14.82;;;20.90;75.80;;;;;;5012748;28;20533;-54
2023/09/27 01:23:28;;;;;;;21.73;13.55;;;21.00;75.80;;;;;;5013028;28;20025;-54
2023/09/27 01:25:58;;;;;;;24.88;13.75;;;21.00;75.50;;;;;;5028518;28;20031;-51
2023/09/27 01:28:24;;;;;;;27.35;13.48;;;21.10;75.20;;;;;;5013118;28;20914;-54
2023/09/27 01:30:52;;;;;;;19.35;12.70;;;21.10;75.10;;;;;;5012045;28;20380;-52
2023/09/27 01:33:18;;;;;;;21.35;12.40;;;21.20;75.00;;;;;;5024079;28;20129;-57
2023/09/27 01:35:44;;;;;;;21.42;12.93;;;21.20;74.80;;;;;;5011660;28;20104;-53
2023/09/27 01:38:11;;;;;;;27.25;12.75;;;21.20;74.70;;;;;;5013157;28;20029;-50
2023/09/27 01:40:44;;;;;;;23.73;12.82;;;21.20;74.60;;;;;;5014882;28;20026;-54
2023/09/27 01:43:11;;;;;;;22.02;13.38;;;21.20;74.40;;;;;;5013537;28;20038;-52
2023/09/27 01:45:38;;;;;;;20.15;12.88;;;21.30;74.40;;;;;;5013251;28;20022;-54
2023/09/27 01:48:04;;;;;;;20.10;11.98;;;21.20;74.30;;;;;;5012626;28;20034;-54
2023/09/27 01:50:33;;;;;;;20.00;12.10;;;21.30;74.60;;;;;;5012254;28;20374;-55
2023/09/27 01:52:59;;;;;;;26.55;12.18;;;21.30;74.40;;;;;;5011223;28;20056;-55
2023/09/27 01:55:25;;;;;;;21.00;12.35;;;21.30;74.30;;;;;;5011451;28;20409;-54
2023/09/27 01:57:52;;;;;;;19.40;11.98;;;21.30;74.20;;;;;;5011053;28;20133;-56
2023/09/27 02:00:19;;;;;;;20.38;12.18;;;21.30;74.20;;;;;;5019767;28;20030;-51
2023/09/27 02:02:59;;;;;;;16.25;11.63;;;21.30;74.20;;;;;;5010669;28;20493;-52
2023/09/27 02:05:27;;;;;;;18.05;11.18;;;21.30;74.00;;;;;;5011266;28;20456;-56
2023/09/27 02:07:53;;;;;;;18.13;11.48;;;21.30;74.50;;;;;;5011851;28;20037;-56
2023/09/27 02:10:20;;;;;;;19.10;10.98;;;21.30;74.10;;;;;;5011221;28;20432;-55
2023/09/27 02:12:46;;;;;;;16.67;11.40;;;21.30;74.30;;;;;;5010767;28;20393;-57
2023/09/27 02:15:14;;;;;;;16.83;10.95;;;21.30;74.30;;;;;;5011583;28;20034;-54
2023/09/27 02:17:41;;;;;;;17.55;10.50;;;21.30;74.30;;;;;;5011509;28;20579;-50
2023/09/27 02:20:17;;;;;;;15.55;11.15;;;21.30;74.30;;;;;;5012223;28;20032;-53
2023/09/27 02:22:44;;;;;;;18.52;10.98;;;21.30;74.30;;;;;;5011063;28;20528;-55
2023/09/27 02:25:11;;;;;;;19.65;11.70;;;21.30;74.40;;;;;;5010062;28;20542;-55
2023/09/27 02:27:38;;;;;;;15.85;12.18;;;21.30;74.10;;;;;;5012578;28;20038;-51
2023/09/27 02:30:07;;;;;;;20.70;11.90;;;21.30;74.00;;;;;;5018299;28;20108;-52
2023/09/27 02:32:34;;;;;;;15.48;10.60;;;21.40;74.50;;;;;;5012430;28;20114;-50
2023/09/27 02:35:00;;;;;;;16.15;11.57;;;21.30;73.90;;;;;;5011528;28;20112;-52
2023/09/27 02:37:27;;;;;;;16.20;10.93;;;21.40;74.30;;;;;;5011402;28;20038;-53
2023/09/27 02:39:52;;;;;;;18.80;11.90;;;21.30;74.30;;;;;;5011790;28;20018;-51
2023/09/27 02:42:18;;;;;;;16.80;10.63;;;21.40;74.40;;;;;;5010880;28;20109;-51
2023/09/27 02:44:44;;;;;;;15.23;10.82;;;21.40;74.50;;;;;;5014292;28;20059;-52
2023/09/27 02:47:10;;;;;;;16.05;11.40;;;21.40;74.20;;;;;;5011737;28;20034;-54
2023/09/27 02:49:36;;;;;;;20.30;11.65;;;21.40;74.00;;;;;;5011211;28;20489;-54
2023/09/27 02:52:03;;;;;;;17.10;11.30;;;21.40;74.30;;;;;;5005730;28;20030;-53
2023/09/27 02:54:29;;;;;;;15.77;10.20;;;21.40;74.40;;;;;;5010209;28;20125;-51
2023/09/27 02:56:55;;;;;;;16.65;11.20;;;21.40;74.30;;;;;;5010930;28;20025;-51
2023/09/27 02:59:21;;;;;;;17.08;10.48;;;21.30;74.10;;;;;;5010486;28;20037;-56
2023/09/27 03:01:47;;;;;;;13.85;10.43;;;21.40;74.90;;;;;;5014996;28;20041;-52
2023/09/27 03:04:15;;;;;;;18.15;11.00;;;21.40;74.60;;;;;;5015665;28;20026;-55
2023/09/27 03:06:44;;;;;;;13.98;10.40;;;21.30;74.20;;;;;;5027201;28;20635;-52
2023/09/27 03:09:11;;;;;;;;;;;21.30;74.20;;;;;;5010722;28;20030;-55
2023/09/27 03:11:40;;;;;;;26.80;11.05;;;21.30;74.40;;;;;;5035660;28;19917;-52
2023/09/27 03:14:06;;;;;;;20.88;11.05;;;21.30;74.60;;;;;;5009261;28;20041;-54
2023/09/27 03:16:32;;;;;;;14.88;10.70;;;21.40;74.70;;;;;;5011123;28;20030;-52
2023/09/27 03:18:59;;;;;;;16.33;11.02;;;21.40;74.60;;;;;;5009548;28;20556;-52
2023/09/27 03:21:26;;;;;;;17.48;11.15;;;21.30;74.20;;;;;;5010681;28;20036;-52
2023/09/27 03:23:53;;;;;;;16.30;10.43;;;21.30;74.30;;;;;;5010867;28;20030;-53
2023/09/27 03:26:23;;;;;;;16.60;10.35;;;21.30;74.60;;;;;;5009745;28;20080;-54
2023/09/27 03:28:50;;;;;;;16.92;10.82;;;21.40;74.30;;;;;;5009053;28;20030;-55
2023/09/27 03:31:19;;;;;;;14.55;10.25;;;21.30;74.20;;;;;;5017460;28;20022;-53
2023/09/27 03:33:46;;;;;;;14.13;10.63;;;21.30;74.50;;;;;;5012033;28;20473;-52
2023/09/27 03:36:12;;;;;;;16.77;10.75;;;21.30;74.40;;;;;;5028530;28;20076;-53
2023/09/27 03:38:38;;;;;;;16.77;11.10;;;21.40;74.40;;;;;;5009876;28;20116;-57
2023/09/27 03:41:11;;;;;;;18.25;11.27;;;21.30;74.20;;;;;;5010415;28;20061;-56
2023/09/27 03:43:38;;;;;;;16.05;11.25;;;21.30;74.40;;;;;;5011126;28;20026;-56
2023/09/27 03:46:04;;;;;;;16.65;10.98;;;21.40;74.20;;;;;;5011803;28;20064;-56
2023/09/27 03:48:31;;;;;;;16.73;11.35;;;21.30;74.10;;;;;;5009728;28;20370;-55
2023/09/27 03:50:57;;;;;;;14.32;11.25;;;21.30;73.90;;;;;;5009877;28;20048;-55
2023/09/27 03:53:25;;;;;;;16.50;10.65;;;21.30;74.10;;;;;;5009270;28;20056;-55
2023/09/27 03:55:51;;;;;;;19.50;10.95;;;21.40;74.20;;;;;;5017296;28;20029;-57
2023/09/27 03:58:17;;;;;;;18.85;11.40;;;21.30;74.00;;;;;;5026624;28;20036;-57
2023/09/27 04:00:44;;;;;;;14.40;10.15;;;21.30;74.00;;;;;;5008918;28;20117;-54
2023/09/27 04:03:10;;;;;;;15.25;10.63;;;21.30;74.30;;;;;;5009122;28;20444;-58
2023/09/27 04:05:36;;;;;;;15.82;11.38;;;21.30;73.90;;;;;;5010980;28;20473;-58
2023/09/27 04:08:02;;;;;;;14.90;10.93;;;21.30;74.10;;;;;;5011770;28;20054;-55
2023/09/27 04:10:29;;;;;;;14.32;10.88;;;21.30;74.10;;;;;;5010818;28;20045;-58
2023/09/27 04:12:55;;;;;;;15.98;10.85;;;21.30;74.10;;;;;;5011317;28;20038;-57
2023/09/27 04:15:21;;;;;;;16.38;10.15;;;21.30;74.00;;;;;;5009603;28;20409;-57
2023/09/27 04:17:47;;;;;;;14.80;10.35;;;21.30;73.90;;;;;;5010565;28;20400;-56
2023/09/27 04:20:19;;;;;;;16.63;10.30;;;21.30;74.10;;;;;;5010320;28;20026;-57
2023/09/27 04:22:49;;;;;;;15.55;11.07;;;21.30;74.00;;;;;;5011138;28;20057;-57
2023/09/27 04:25:17;;;;;;;14.02;10.40;;;21.40;74.40;;;;;;5009893;28;20065;-57
2023/09/27 04:27:45;;;;;;;17.35;10.90;;;21.40;74.00;;;;;;5010380;28;20029;-57
2023/09/27 04:30:13;;;;;;;15.52;10.02;;;21.30;74.20;;;;;;5010374;28;20029;-57
2023/09/27 04:32:41;;;;;;;16.38;11.55;;;21.30;74.10;;;;;;5009160;28;20991;-58
2023/09/27 04:35:08;;;;;;;15.98;10.75;;;21.30;74.20;;;;;;5009158;28;20412;-56
2023/09/27 04:37:35;;;;;;;15.23;10.57;;;21.30;74.00;;;;;;5017721;28;20378;-58
2023/09/27 04:40:04;;;;;;;15.25;10.70;;;21.30;74.20;;;;;;5011114;28;20026;-56
2023/09/27 04:42:30;;;;;;;15.85;11.07;;;21.30;74.30;;;;;;5011132;28;20041;-54
2023/09/27 04:44:55;;;;;;;14.55;10.23;;;21.30;73.70;;;;;;5013190;28;20499;-58
2023/09/27 04:47:22;;;;;;;17.55;10.45;;;21.30;74.20;;;;;;5013504;28;20030;-57
2023/09/27 04:49:47;;;;;;;14.60;10.40;;;21.30;74.10;;;;;;5013054;28;20021;-58
2023/09/27 04:52:13;;;;;;;15.60;10.98;;;21.30;73.70;;;;;;5013845;28;20109;-56
2023/09/27 04:54:39;;;;;;;15.25;10.32;;;21.30;73.80;;;;;;5013177;28;20030;-56
2023/09/27 04:57:05;;;;;;;16.80;11.50;;;21.30;74.10;;;;;;5014615;28;20109;-56
2023/09/27 04:59:31;;;;;;;15.23;10.82;;;21.30;73.70;;;;;;5013249;28;20603;-58
2023/09/27 05:01:56;;;;;;;15.23;10.82;;;21.30;74.10;;;;;;5013044;28;20021;-57
2023/09/27 05:04:22;;;;;;;14.25;9.93;;;21.30;73.70;;;;;;5013034;28;20037;-58
2023/09/27 05:06:48;;;;;;;14.30;9.93;;;21.30;74.00;;;;;;5013525;28;20033;-55
2023/09/27 05:09:14;;;;;;;15.32;10.52;;;21.30;74.10;;;;;;5012256;28;20041;-57
2023/09/27 05:11:40;;;;;;;14.15;10.13;;;21.30;73.90;;;;;;5013977;28;20440;-58
2023/09/27 05:14:06;;;;;;;16.23;10.43;;;21.30;73.70;;;;;;5013834;28;20029;-57
2023/09/27 05:16:36;;;;;;;15.60;9.95;;;21.30;73.80;;;;;;5012804;28;20057;-55
2023/09/27 05:19:01;;;;;;;16.02;10.48;;;21.30;73.70;;;;;;5012449;28;20041;-56
2023/09/27 05:21:27;;;;;;;14.10;9.80;;;21.40;73.80;;;;;;5013364;28;20026;-57
2023/09/27 05:23:53;;;;;;;16.48;10.68;;;21.40;74.00;;;;;;5012726;28;20033;-57
2023/09/27 05:26:19;;;;;;;17.27;10.52;;;21.30;73.50;;;;;;5013766;28;20026;-57
2023/09/27 05:28:45;;;;;;;15.05;9.98;;;21.30;73.70;;;;;;5012745;28;20119;-57
2023/09/27 05:31:10;;;;;;;14.30;10.18;;;21.30;73.70;;;;;;5012226;28;20046;-55
2023/09/27 05:33:37;;;;;;;18.27;10.80;;;21.30;73.60;;;;;;5012066;28;20033;-55
2023/09/27 05:36:03;;;;;;;14.32;9.48;;;21.30;73.80;;;;;;5011807;28;20464;-57
2023/09/27 05:38:28;;;;;;;17.40;10.48;;;21.30;73.70;;;;;;5012808;28;20022;-55
2023/09/27 05:40:54;;;;;;;14.75;10.77;;;21.40;73.80;;;;;;5013513;28;20021;-52
2023/09/27 05:43:20;;;;;;;15.13;10.05;;;21.40;73.70;;;;;;5013286;28;20686;-57
2023/09/27 05:45:46;;;;;;;14.73;10.25;;;21.40;73.90;;;;;;5011308;28;20053;-55
2023/09/27 05:48:15;;;;;;;14.88;10.23;;;21.40;74.00;;;;;;5011648;28;20026;-53
2023/09/27 05:50:46;;;;;;;13.02;10.30;;;21.40;73.90;;;;;;5012647;28;20101;-54
2023/09/27 05:53:12;;;;;;;16.17;9.32;;;21.40;73.70;;;;;;5012230;28;20057;-56
2023/09/27 05:55:40;;;;;;;15.00;9.68;;;21.40;73.70;;;;;;5011936;28;20034;-53
2023/09/27 05:58:05;;;;;;;16.45;10.30;;;21.30;74.00;;;;;;4991940;28;20105;-51
2023/09/27 06:00:37;;;;;;;15.75;9.77;;;21.40;73.90;;;;;;5011327;28;20900;-53
2023/09/27 06:03:07;;;;;;;15.23;9.90;;;21.40;73.60;;;;;;5005618;28;20033;-55
2023/09/27 06:05:33;;;;;;;15.88;10.68;;;21.40;73.60;;;;;;5012264;28;20408;-53
2023/09/27 06:07:59;;;;;;;17.50;10.50;;;21.40;73.60;;;;;;5012612;28;20018;-52
2023/09/27 06:10:25;;;;;;;15.30;10.93;;;21.30;73.80;;;;;;5012023;28;20045;-53
2023/09/27 06:12:51;;;;;;;19.55;11.02;;;21.30;74.00;;;;;;5012627;28;20037;-54
2023/09/27 06:15:17;;;;;;;19.17;10.48;;;21.30;74.00;;;;;;5013032;28;20025;-53
2023/09/27 06:17:43;;;;;;;21.08;10.82;;;21.30;74.10;;;;;;5012855;28;20025;-56
2023/09/27 06:20:20;;;;;;;27.13;12.23;;;21.30;74.30;;;;;;5012587;28;20087;-55
2023/09/27 06:22:52;;;;;;;25.13;10.27;;;21.30;74.50;;;;;;5008367;28;20030;-51
2023/09/27 06:25:18;;;;;;;18.65;10.10;;;21.40;74.70;;;;;;5011885;28;20045;-53
2023/09/27 06:27:44;;;;;;;20.42;10.93;;;21.30;74.60;;;;;;5012739;28;20022;-55
2023/09/27 06:30:12;;;;;;;18.77;10.18;;;21.40;74.40;;;;;;5012850;28;20026;-53
2023/09/27 06:32:37;;;;;;;21.70;10.13;;;21.40;74.60;;;;;;5009785;28;20050;-58
2023/09/27 06:35:22;;;;;;;27.17;9.85;;;21.50;75.60;;;;;;5011469;28;20215;-51
2023/09/27 06:37:50;;;;;;;25.23;11.05;;;21.50;74.30;;;;;;5008190;28;20033;-57
2023/09/27 06:40:19;;;;;;;26.45;10.73;;;21.50;74.30;;;;;;5011081;28;20025;-53
2023/09/27 06:42:46;;;;;;;22.95;11.90;;;21.50;74.30;;;;;;5011329;28;20507;-57
2023/09/27 06:45:13;;;;;;;21.83;12.25;;;21.40;73.70;;;;;;5060425;23;20048;-52
2023/09/27 06:47:44;;;;;;;19.45;13.00;;;21.30;73.00;;;;;;5065401;28;20037;-55
2023/09/27 06:50:11;;;;;;;24.48;13.82;;;21.20;73.10;;;;;;5071033;28;20055;-55
2023/09/27 06:52:39;;;;;;;33.67;14.13;;;21.20;73.20;;;;;;5070556;28;20373;-55
2023/09/27 06:55:16;;;;;;;26.10;13.73;;;21.20;73.90;;;;;;5070473;28;20541;-58
2023/09/27 06:57:52;;;;;;;26.08;13.73;;;21.10;73.70;;;;;;5066720;28;20036;-55
2023/09/27 07:00:24;;;;;;;22.58;13.85;;;21.10;73.90;;;;;;5070805;28;20025;-53
2023/09/27 07:02:51;;;;;;;27.05;13.60;;;21.10;74.40;;;;;;5062964;28;20025;-50
2023/09/27 07:05:20;;;;;;;43.40;14.85;;;21.10;74.20;;;;;;5071356;28;20032;-55
2023/09/27 07:07:47;;;;;;;27.70;13.00;;;21.00;74.70;;;;;;5067416;28;20479;-55
2023/09/27 07:10:13;;;;;;;24.02;13.68;;;21.00;74.40;;;;;;5068550;28;20407;-52
2023/09/27 07:12:38;;;;;;;29.42;14.05;;;21.00;74.40;;;;;;5069474;28;20047;-53
2023/09/27 07:15:10;;;;;;;22.40;14.25;;;21.00;74.90;;;;;;5069400;28;20108;-49
2023/09/27 07:17:39;;;;;;;26.42;13.60;;;21.00;74.80;;;;;;5068275;28;20097;-50
2023/09/27 07:20:23;;;;;;;20.92;13.85;;;21.00;75.00;;;;;;5069769;28;20158;-53
2023/09/27 07:22:49;;;;;;;26.48;14.77;;;21.00;75.20;;;;;;5068361;28;20040;-53
2023/09/27 07:25:18;;;;;;;29.13;14.10;;;21.00;75.20;;;;;;5068046;28;20024;-53
2023/09/27 07:27:46;;;;;;;27.05;13.98;;;21.00;75.50;;;;;;5070970;28;20468;-52
2023/09/27 07:30:12;;;;;;;21.88;12.80;;;21.00;76.00;;;;;;5071527;28;20024;-52
2023/09/27 07:32:41;;;;;;;24.15;13.27;;;21.00;75.30;;;;;;5071504;28;20024;-52
2023/09/27 07:35:09;;;;;;;18.77;13.00;;;21.10;75.30;;;;;;5071361;28;20029;-50
2023/09/27 07:37:39;;;;;;;22.38;14.00;;;21.10;75.40;;;;;;5071516;28;20556;-55
2023/09/27 07:40:09;;;;;;;21.42;13.00;;;21.10;75.30;;;;;;5071365;28;20029;-55
2023/09/27 07:42:35;;;;;;;20.83;13.85;;;21.20;75.20;;;;;;5071386;28;20056;-51
2023/09/27 07:45:02;;;;;;;19.00;11.93;;;21.20;75.20;;;;;;5070884;28;20042;-49
2023/09/27 07:47:27;;;;;;;20.63;12.80;;;21.20;74.90;;;;;;5071361;28;20112;-54
2023/09/27 07:49:54;;;;;;;21.35;14.02;;;21.20;74.80;;;;;;5071381;28;20099;-55
2023/09/27 07:52:20;;;;;;;20.95;12.95;;;21.30;75.00;;;;;;5071390;28;20078;-53
2023/09/27 07:54:46;;;;;;;22.50;14.20;;;21.30;74.40;;;;;;5071073;28;20029;-54
2023/09/27 07:57:12;;;;;;;21.45;13.18;;;21.30;74.40;;;;;;5071434;28;20036;-54
2023/09/27 07:59:37;;;;;;;21.98;13.40;;;21.30;74.30;;;;;;5071372;28;20058;-52
2023/09/27 08:02:03;;;;;;;19.63;12.93;;;21.30;74.30;;;;;;5071610;28;20028;-55
2023/09/27 08:04:29;;;;;;;16.20;12.10;;;21.30;74.20;;;;;;5070889;28;20055;-51
2023/09/27 08:06:55;;;;;;;19.73;12.73;;;21.30;74.40;;;;;;5071204;28;20017;-54
2023/09/27 08:09:22;;;;;;;21.40;12.75;;;21.30;74.20;;;;;;5071175;28;20472;-48
2023/09/27 08:11:48;;;;;;;22.38;12.38;;;21.40;74.20;;;;;;5071229;28;20028;-55
2023/09/27 08:14:18;;;;;;;32.20;13.45;;;21.40;74.40;;;;;;5070907;28;20028;-47
2023/09/27 08:16:44;;;;;;;21.10;14.10;;;21.40;74.90;;;;;;5070104;28;20059;-52
2023/09/27 08:19:10;;;;;;;21.30;13.60;;;21.50;74.80;;;;;;5075030;28;20078;-55
2023/09/27 08:21:35;;;;;;;22.77;12.93;;;21.50;75.10;;;;;;5075016;28;20032;-53
2023/09/27 08:24:01;;;;;;;22.38;12.98;;;21.50;75.40;;;;;;5074421;28;20032;-55
2023/09/27 08:26:27;;;;;;;22.55;12.00;;;21.50;75.30;;;;;;5074906;28;20024;-54
2023/09/27 08:28:53;;;;;;;21.80;13.20;;;21.50;75.10;;;;;;5074796;28;20563;-55
2023/09/27 08:31:19;;;;;;;25.90;13.57;;;21.60;75.20;;;;;;5074815;28;20487;-56
2023/09/27 08:33:45;;;;;;;23.95;13.13;;;21.60;74.90;;;;;;5074505;28;20507;-53
2023/09/27 08:36:11;;;;;;;18.45;12.27;;;21.60;74.80;;;;;;5074712;28;20025;-56
2023/09/27 08:38:37;;;;;;;20.27;12.63;;;21.50;74.80;;;;;;5074569;28;20446;-55
2023/09/27 08:41:06;;;;;;;21.90;12.23;;;21.60;75.10;;;;;;5074644;28;20342;-49
2023/09/27 08:43:36;;;;;;;23.83;12.02;;;21.60;74.90;;;;;;5073232;28;20020;-53
2023/09/27 08:46:04;;;;;;;17.05;11.23;;;21.60;74.90;;;;;;5074177;28;20111;-50
2023/09/27 08:48:30;;;;;;;19.15;12.25;;;21.60;75.10;;;;;;5074433;28;20373;-55
2023/09/27 08:51:03;;;;;;;19.13;12.40;;;21.60;74.60;;;;;;5074440;28;20381;-54
2023/09/27 08:53:31;;;;;;;20.75;12.43;;;21.70;75.10;;;;;;5072860;28;20036;-54
2023/09/27 08:55:58;;;;;;;21.98;10.77;;;21.80;74.30;;;;;;5073066;28;20033;-52
2023/09/27 08:58:25;;;;;;;17.20;11.55;;;21.80;74.50;;;;;;5074438;28;20025;-55
2023/09/27 09:00:52;;;;;;;17.30;10.80;;;21.80;74.50;;;;;;5074235;28;20032;-56
2023/09/27 09:03:19;;;;;;;15.82;10.25;;;21.80;74.50;;;;;;5073941;28;20036;-55
2023/09/27 09:05:47;;;;;;;16.65;10.18;;;21.80;74.50;;;;;;5074092;28;20115;-54
2023/09/27 09:08:14;;;;;;;18.20;10.40;;;21.90;74.20;;;;;;5074215;28;20028;-54
2023/09/27 09:10:43;;;;;;;19.48;11.23;;;21.80;73.80;;;;;;5074021;28;20035;-55
2023/09/27 09:13:08;;;;;;;19.83;10.70;;;21.90;73.60;;;;;;5073832;28;20377;-55
2023/09/27 09:15:40;;;;;;;16.55;10.80;;;21.90;73.50;;;;;;5073828;28;20031;-51
2023/09/27 09:18:28;;;;;;;22.25;10.30;;;21.90;73.40;;;;;;5073162;28;20052;-49
2023/09/27 09:20:58;;;;;;;22.60;10.32;;;22.00;72.70;;;;;;5074080;28;20028;-50
2023/09/27 09:23:47;;;;;;;17.67;11.60;;;21.80;72.80;;;;;;5073746;28;20538;-53
2023/09/27 09:26:24;;;;;;;25.97;11.57;;;21.70;72.70;;;;;;5073797;28;20074;-50
2023/09/27 09:28:59;;;;;;;23.40;11.98;;;21.60;73.00;;;;;;5073057;28;20024;-55
2023/09/27 09:31:27;;;;;;;17.33;10.27;;;21.60;73.10;;;;;;5073656;28;20147;-55
2023/09/27 09:34:04;;;;;;;18.02;10.20;;;21.60;73.50;;;;;;5073271;28;20157;-50
2023/09/27 09:36:30;;;;;;;24.15;10.95;;;21.60;73.20;;;;;;5073554;28;20024;-51
2023/09/27 09:39:13;;;;;;;23.27;10.80;;;21.60;73.10;;;;;;5073460;28;20033;-51
2023/09/27 09:41:45;;;;;;;17.33;10.20;;;21.60;73.50;;;;;;5073557;28;20052;-54
2023/09/27 09:44:22;;;;;;;19.10;10.13;;;21.60;72.70;;;;;;5073100;28;20394;-55
2023/09/27 09:46:49;;;;;;;15.23;9.93;;;21.60;73.10;;;;;;5073472;28;20033;-53
2023/09/27 09:49:16;;;;;;;20.35;9.63;;;21.60;72.60;;;;;;5073464;28;20024;-54
2023/09/27 09:51:47;;;;;;;17.35;10.13;;;21.60;72.80;;;;;;5073327;28;20077;-55
2023/09/27 09:54:27;;;;;;;17.90;10.27;;;21.60;72.70;;;;;;5073013;28;20131;-51
2023/09/27 09:56:57;;;;;;;20.17;10.57;;;21.60;72.50;;;;;;5073247;28;20040;-53
2023/09/27 09:59:28;;;;;;;18.35;9.57;;;21.60;72.20;;;;;;5073172;28;20029;-54
2023/09/27 10:01:57;;;;;;;16.67;9.40;;;21.70;72.50;;;;;;5073051;28;20453;-55
2023/09/27 10:04:26;;;;;;;14.88;9.45;;;21.70;72.40;;;;;;5072565;28;20028;-51
2023/09/27 10:06:53;;;;;;;19.02;8.13;;;21.70;72.50;;;;;;5072984;28;20108;-53
2023/09/27 10:09:21;;;;;;;15.07;8.90;;;21.80;72.80;;;;;;5073063;28;20024;-55
2023/09/27 10:11:47;;;;;;;13.77;9.18;;;21.80;73.00;;;;;;5072863;28;20502;-48
2023/09/27 10:14:14;;;;;;;18.33;10.07;;;22.00;71.70;;;;;;5072449;28;20075;-55
2023/09/27 10:16:40;;;;;;;19.00;10.20;;;22.20;71.20;;;;;;5071467;28;20530;-50
2023/09/27 10:19:06;;;;;;;15.23;9.15;;;22.20;70.90;;;;;;5072965;28;20029;-55
2023/09/27 10:21:32;;;;;;;15.40;8.73;;;22.20;70.90;;;;;;5072572;28;20031;-53
2023/09/27 10:24:01;;;;;;;19.02;7.90;;;22.20;70.70;;;;;;5072477;28;20067;-55
2023/09/27 10:26:27;;;;;;;13.35;7.45;;;22.20;70.50;;;;;;5072640;28;20017;-53
2023/09/27 10:29:06;;;;;;;17.42;8.30;;;22.20;70.20;;;;;;5072558;28;20078;-56
2023/09/27 10:31:37;;;;;;;15.45;7.75;;;22.30;69.70;;;;;;5072560;28;20039;-55
2023/09/27 10:34:26;;;;;;;12.48;6.93;;;22.30;69.70;;;;;;5072215;28;20035;-54
2023/09/27 10:36:59;;;;;;;14.43;7.40;;;22.30;69.40;;;;;;5072275;28;20086;-54
2023/09/27 10:39:25;;;;;;;15.27;7.18;;;22.30;69.60;;;;;;5072341;28;20082;-55
2023/09/27 10:41:53;;;;;;;15.45;6.65;;;22.20;69.40;;;;;;5071288;28;20097;-54
2023/09/27 10:44:43;;;;;;;15.10;7.28;;;22.20;69.80;;;;;;5070509;28;20404;-53
2023/09/27 10:47:09;;;;;;;12.43;6.82;;;22.20;69.50;;;;;;5072304;28;20032;-52
2023/09/27 10:49:40;;;;;;;15.15;7.47;;;22.20;70.00;;;;;;5072131;28;20400;-53
2023/09/27 10:52:16;;;;;;;16.45;7.20;;;22.10;69.90;;;;;;5072210;28;20025;-55
2023/09/27 10:54:43;;;;;;;10.93;7.13;;;22.10;70.30;;;;;;5071846;28;20064;-54
2023/09/27 10:57:09;;;;;;;16.02;7.70;;;22.10;70.10;;;;;;5072294;28;20059;-55
2023/09/27 10:59:35;;;;;;;13.00;7.53;;;22.20;70.00;;;;;;5071912;28;20025;-52
2023/09/27 11:02:06;;;;;;;14.20;7.03;;;22.20;69.70;;;;;;5071864;28;20029;-55
2023/09/27 11:04:33;;;;;;;16.30;7.18;;;22.20;69.60;;;;;;5071341;28;20028;-55
2023/09/27 11:06:59;;;;;;;22.15;7.32;;;22.10;69.60;;;;;;5070649;28;20097;-54
2023/09/27 11:09:26;;;;;;;16.63;7.07;;;22.20;69.90;;;;;;5071540;28;20488;-55
2023/09/27 11:11:55;;;;;;;15.07;6.55;;;22.20;70.40;;;;;;5071765;28;20413;-55
2023/09/27 11:14:33;;;;;;;18.45;7.25;;;22.30;70.20;;;;;;5071310;28;20500;-56
2023/09/27 11:17:22;;;;;;;17.38;6.63;;;22.30;69.10;;;;;;5071887;28;20440;-56
2023/09/27 11:19:48;;;;;;;13.93;5.53;;;22.40;68.40;;;;;;5071713;28;20029;-55
2023/09/27 11:22:28;;;;;;;10.23;6.05;;;22.40;67.90;;;;;;5072017;28;20033;-55
2023/09/27 11:24:54;;;;;;;17.50;9.40;;;22.50;67.60;;;;;;5071161;28;20446;-55
2023/09/27 11:27:20;;;;;;;15.68;9.50;;;22.60;66.90;;;;;;5071578;28;20024;-55
2023/09/27 11:29:53;;;;;;;11.25;7.05;;;22.60;66.70;;;;;;5071643;28;20078;-54
2023/09/27 11:32:22;;;;;;;16.70;7.63;;;22.50;66.20;;;;;;5071396;28;20028;-55
2023/09/27 11:34:58;;;;;;;14.68;6.63;;;22.50;66.50;;;;;;5071267;28;20111;-55
2023/09/27 11:37:25;;;;;;;11.60;6.15;;;22.40;66.50;;;;;;5071572;28;20069;-55
2023/09/27 11:39:52;;;;;;;15.35;6.22;;;22.50;66.00;;;;;;5071583;28;20031;-53
2023/09/27 11:42:22;;;;;;;13.85;6.25;;;22.50;65.80;;;;;;5071421;28;20028;-55
2023/09/27 11:45:08;;;;;;;10.32;5.70;;;22.50;65.20;;;;;;5070903;28;20450;-54
2023/09/27 11:47:47;;;;;;;11.73;5.32;;;22.40;65.40;;;;;;5071587;28;20089;-55
2023/09/27 11:50:14;;;;;;;15.40;5.33;;;22.50;65.00;;;;;;5071555;28;20027;-57
2023/09/27 11:52:42;;;;;;;16.42;6.40;;;22.50;64.40;;;;;;5073137;28;20350;-57
2023/09/27 11:55:09;;;;;;;17.23;6.50;;;22.60;64.60;;;;;;5075204;28;20036;-54
2023/09/27 11:57:36;;;;;;;14.52;7.50;;;22.50;64.90;;;;;;5075366;28;20025;-58
2023/09/27 12:00:05;;;;;;;14.48;7.45;;;22.50;65.50;;;;;;5075379;28;20036;-55
2023/09/27 12:02:33;;;;;;;15.68;7.20;;;22.40;65.40;;;;;;5074386;28;20039;-55
2023/09/27 12:05:00;;;;;;;12.25;6.53;;;22.40;65.80;;;;;;5075015;28;20446;-55
2023/09/27 12:07:27;;;;;;;14.88;6.22;;;22.40;65.90;;;;;;5075380;28;20083;-55
2023/09/27 12:09:54;;;;;;;12.70;5.80;;;22.40;65.80;;;;;;5075204;28;20483;-54
2023/09/27 12:12:20;;;;;;;18.90;6.05;;;22.30;66.00;;;;;;5075187;28;20024;-55
2023/09/27 12:14:46;;;;;;;15.10;5.85;;;22.30;66.10;;;;;;5074742;28;20032;-55
2023/09/27 12:17:12;;;;;;;11.07;6.22;;;22.30;65.70;;;;;;5075096;28;20025;-55
2023/09/27 12:19:38;;;;;;;12.95;5.25;;;22.40;65.90;;;;;;5075071;28;20032;-54
2023/09/27 12:22:04;;;;;;;13.07;5.22;;;22.30;66.10;;;;;;5074888;28;20040;-55
2023/09/27 12:24:31;;;;;;;11.10;5.40;;;22.30;65.90;;;;;;5074538;28;20028;-56
2023/09/27 12:26:56;;;;;;;11.00;5.22;;;22.30;66.00;;;;;;5074819;28;20051;-52
2023/09/27 12:29:22;;;;;;;14.15;5.72;;;22.30;65.30;;;;;;5074802;28;20024;-55
2023/09/27 12:31:48;;;;;;;11.75;5.15;;;22.30;65.40;;;;;;5074683;28;20024;-55
2023/09/27 12:34:14;;;;;;;9.30;5.65;;;22.30;65.00;;;;;;5074401;28;20032;-55